sensor_id;sensor_type;location;lat;lon;timestamp;P1;durP1;ratioP1;P2;durP2;ratioP2
60225;SDS011;46090;48.436;11.410;2022-12-18T00:01:21;11.68;;;5.32;;
60225;SDS011;46090;48.436;11.410;2022-12-18T00:03:53;8.40;;;4.70;;
60225;SDS011;46090;48.436;11.410;2022-12-18T00:06:21;9.93;;;5.43;;
60225;SDS011;46090;48.436;11.410;2022-12-18T00:08:48;8.75;;;4.72;;
60225;SDS011;46090;48.436;11.410;2022-12-18T00:11:19;7.68;;;4.72;;
60225;SDS011;46090;48.436;11.410;2022-12-18T00:13:48;9.73;;;5.28;;
60225;SDS011;46090;48.436;11.410;2022-12-18T00:16:17;8.23;;;4.72;;
60225;SDS011;46090;48.436;11.410;2022-12-18T00:18:50;9.45;;;4.97;;
60225;SDS011;46090;48.436;11.410;2022-12-18T00:21:20;9.60;;;5.00;;
60225;SDS011;46090;48.436;11.410;2022-12-18T00:23:47;10.60;;;4.75;;
60225;SDS011;46090;48.436;11.410;2022-12-18T00:26:16;8.85;;;4.65;;
60225;SDS011;46090;48.436;11.410;2022-12-18T00:28:44;8.80;;;4.40;;
60225;SDS011;46090;48.436;11.410;2022-12-18T00:31:13;9.02;;;4.80;;
60225;SDS011;46090;48.436;11.410;2022-12-18T00:33:42;8.80;;;5.10;;
60225;SDS011;46090;48.436;11.410;2022-12-18T00:36:10;7.65;;;4.40;;
60225;SDS011;46090;48.436;11.410;2022-12-18T00:38:38;7.68;;;4.45;;
60225;SDS011;46090;48.436;11.410;2022-12-18T00:41:06;8.73;;;4.93;;
60225;SDS011;46090;48.436;11.410;2022-12-18T00:43:34;9.00;;;4.90;;
60225;SDS011;46090;48.436;11.410;2022-12-18T00:46:02;7.63;;;4.10;;
60225;SDS011;46090;48.436;11.410;2022-12-18T00:48:31;9.45;;;5.13;;
60225;SDS011;46090;48.436;11.410;2022-12-18T00:50:59;8.60;;;4.50;;
60225;SDS011;46090;48.436;11.410;2022-12-18T00:53:25;8.55;;;4.63;;
60225;SDS011;46090;48.436;11.410;2022-12-18T00:55:52;9.68;;;4.25;;
60225;SDS011;46090;48.436;11.410;2022-12-18T00:58:21;7.82;;;4.55;;
60225;SDS011;46090;48.436;11.410;2022-12-18T01:00:48;8.40;;;4.30;;
60225;SDS011;46090;48.436;11.410;2022-12-18T01:03:14;8.30;;;4.38;;
60225;SDS011;46090;48.436;11.410;2022-12-18T01:05:43;8.07;;;4.20;;
60225;SDS011;46090;48.436;11.410;2022-12-18T01:08:10;8.43;;;4.22;;
60225;SDS011;46090;48.436;11.410;2022-12-18T01:10:39;8.68;;;4.28;;
60225;SDS011;46090;48.436;11.410;2022-12-18T01:13:07;7.93;;;4.03;;
60225;SDS011;46090;48.436;11.410;2022-12-18T01:15:34;8.75;;;4.13;;
60225;SDS011;46090;48.436;11.410;2022-12-18T01:18:01;8.48;;;4.25;;
60225;SDS011;46090;48.436;11.410;2022-12-18T01:20:30;7.80;;;4.25;;
60225;SDS011;46090;48.436;11.410;2022-12-18T01:22:57;8.43;;;4.60;;
60225;SDS011;46090;48.436;11.410;2022-12-18T01:25:24;7.45;;;4.07;;
60225;SDS011;46090;48.436;11.410;2022-12-18T01:27:52;6.90;;;3.42;;
60225;SDS011;46090;48.436;11.410;2022-12-18T01:30:19;7.22;;;3.60;;
60225;SDS011;46090;48.436;11.410;2022-12-18T01:32:46;7.35;;;3.97;;
60225;SDS011;46090;48.436;11.410;2022-12-18T01:35:12;8.93;;;4.10;;
60225;SDS011;46090;48.436;11.410;2022-12-18T01:37:39;7.00;;;3.33;;
60225;SDS011;46090;48.436;11.410;2022-12-18T01:40:06;7.20;;;4.07;;
60225;SDS011;46090;48.436;11.410;2022-12-18T01:42:33;7.85;;;3.90;;
60225;SDS011;46090;48.436;11.410;2022-12-18T01:47:45;7.18;;;3.65;;
60225;SDS011;46090;48.436;11.410;2022-12-18T01:50:17;6.05;;;3.60;;
60225;SDS011;46090;48.436;11.410;2022-12-18T01:52:47;6.60;;;3.90;;
60225;SDS011;46090;48.436;11.410;2022-12-18T01:55:17;7.32;;;3.63;;
60225;SDS011;46090;48.436;11.410;2022-12-18T01:57:45;10.07;;;4.20;;
60225;SDS011;46090;48.436;11.410;2022-12-18T02:00:15;6.72;;;3.50;;
60225;SDS011;46090;48.436;11.410;2022-12-18T02:02:43;7.57;;;3.45;;
60225;SDS011;46090;48.436;11.410;2022-12-18T02:05:12;6.72;;;3.38;;
60225;SDS011;46090;48.436;11.410;2022-12-18T02:13:41;6.60;;;3.38;;
60225;SDS011;46090;48.436;11.410;2022-12-18T02:18:44;6.97;;;3.33;;
60225;SDS011;46090;48.436;11.410;2022-12-18T02:24:28;6.93;;;3.35;;
60225;SDS011;46090;48.436;11.410;2022-12-18T02:27:03;6.55;;;3.20;;
60225;SDS011;46090;48.436;11.410;2022-12-18T02:29:39;6.72;;;3.42;;
60225;SDS011;46090;48.436;11.410;2022-12-18T02:32:12;6.47;;;3.22;;
60225;SDS011;46090;48.436;11.410;2022-12-18T02:34:41;5.65;;;2.97;;
60225;SDS011;46090;48.436;11.410;2022-12-18T02:37:14;6.75;;;3.33;;
60225;SDS011;46090;48.436;11.410;2022-12-18T02:39:43;6.30;;;3.17;;
60225;SDS011;46090;48.436;11.410;2022-12-18T02:42:12;6.38;;;2.88;;
60225;SDS011;46090;48.436;11.410;2022-12-18T02:44:46;5.43;;;2.78;;
60225;SDS011;46090;48.436;11.410;2022-12-18T02:47:19;6.13;;;2.88;;
60225;SDS011;46090;48.436;11.410;2022-12-18T02:53:06;6.60;;;3.25;;
60225;SDS011;46090;48.436;11.410;2022-12-18T02:58:16;6.05;;;3.08;;
60225;SDS011;46090;48.436;11.410;2022-12-18T03:00:52;6.75;;;2.88;;
60225;SDS011;46090;48.436;11.410;2022-12-18T03:03:35;6.18;;;2.97;;
60225;SDS011;46090;48.436;11.410;2022-12-18T03:06:10;6.80;;;3.05;;
60225;SDS011;46090;48.436;11.410;2022-12-18T03:08:46;6.45;;;3.00;;
60225;SDS011;46090;48.436;11.410;2022-12-18T03:11:17;6.15;;;3.20;;
60225;SDS011;46090;48.436;11.410;2022-12-18T03:14:06;6.82;;;2.83;;
60225;SDS011;46090;48.436;11.410;2022-12-18T03:16:34;6.50;;;2.95;;
60225;SDS011;46090;48.436;11.410;2022-12-18T03:19:02;6.78;;;2.90;;
60225;SDS011;46090;48.436;11.410;2022-12-18T03:21:51;7.30;;;3.30;;
60225;SDS011;46090;48.436;11.410;2022-12-18T03:24:23;8.50;;;3.03;;
60225;SDS011;46090;48.436;11.410;2022-12-18T03:26:52;6.80;;;3.08;;
60225;SDS011;46090;48.436;11.410;2022-12-18T03:29:25;8.55;;;3.42;;
60225;SDS011;46090;48.436;11.410;2022-12-18T03:31:59;10.32;;;3.42;;
60225;SDS011;46090;48.436;11.410;2022-12-18T03:37:01;9.65;;;3.38;;
60225;SDS011;46090;48.436;11.410;2022-12-18T03:39:30;7.88;;;3.15;;
60225;SDS011;46090;48.436;11.410;2022-12-18T03:42:04;8.32;;;2.97;;
60225;SDS011;46090;48.436;11.410;2022-12-18T03:47:30;8.43;;;2.65;;
60225;SDS011;46090;48.436;11.410;2022-12-18T03:55:21;7.57;;;2.97;;
60225;SDS011;46090;48.436;11.410;2022-12-18T03:57:57;7.38;;;3.00;;
60225;SDS011;46090;48.436;11.410;2022-12-18T04:00:31;7.20;;;2.80;;
60225;SDS011;46090;48.436;11.410;2022-12-18T04:03:05;7.13;;;3.00;;
60225;SDS011;46090;48.436;11.410;2022-12-18T04:05:39;8.27;;;2.90;;
60225;SDS011;46090;48.436;11.410;2022-12-18T04:08:07;7.18;;;3.00;;
60225;SDS011;46090;48.436;11.410;2022-12-18T04:10:37;7.22;;;2.88;;
60225;SDS011;46090;48.436;11.410;2022-12-18T04:13:04;9.02;;;3.10;;
60225;SDS011;46090;48.436;11.410;2022-12-18T04:15:33;6.22;;;2.80;;
60225;SDS011;46090;48.436;11.410;2022-12-18T04:18:03;6.55;;;2.58;;
60225;SDS011;46090;48.436;11.410;2022-12-18T04:20:37;6.38;;;2.80;;
60225;SDS011;46090;48.436;11.410;2022-12-18T04:23:04;6.40;;;3.10;;
60225;SDS011;46090;48.436;11.410;2022-12-18T04:25:31;6.88;;;2.67;;
60225;SDS011;46090;48.436;11.410;2022-12-18T04:28:07;7.05;;;2.50;;
60225;SDS011;46090;48.436;11.410;2022-12-18T04:30:36;6.72;;;2.70;;
60225;SDS011;46090;48.436;11.410;2022-12-18T04:33:08;7.15;;;2.75;;
60225;SDS011;46090;48.436;11.410;2022-12-18T04:38:06;7.70;;;2.60;;
60225;SDS011;46090;48.436;11.410;2022-12-18T04:40:34;5.82;;;2.38;;
60225;SDS011;46090;48.436;11.410;2022-12-18T04:43:05;6.22;;;2.35;;
60225;SDS011;46090;48.436;11.410;2022-12-18T04:45:31;6.57;;;2.42;;
60225;SDS011;46090;48.436;11.410;2022-12-18T04:47:59;6.07;;;2.40;;
60225;SDS011;46090;48.436;11.410;2022-12-18T04:50:26;8.75;;;2.50;;
60225;SDS011;46090;48.436;11.410;2022-12-18T04:52:56;5.18;;;2.20;;
60225;SDS011;46090;48.436;11.410;2022-12-18T04:55:23;4.68;;;2.35;;
60225;SDS011;46090;48.436;11.410;2022-12-18T04:57:51;5.80;;;2.42;;
60225;SDS011;46090;48.436;11.410;2022-12-18T05:00:18;6.05;;;2.60;;
60225;SDS011;46090;48.436;11.410;2022-12-18T05:02:46;5.72;;;2.45;;
60225;SDS011;46090;48.436;11.410;2022-12-18T05:05:12;6.63;;;2.35;;
60225;SDS011;46090;48.436;11.410;2022-12-18T05:07:40;7.72;;;2.88;;
60225;SDS011;46090;48.436;11.410;2022-12-18T05:10:07;7.95;;;2.40;;
60225;SDS011;46090;48.436;11.410;2022-12-18T05:12:35;8.20;;;2.33;;
60225;SDS011;46090;48.436;11.410;2022-12-18T05:15:22;6.60;;;2.42;;
60225;SDS011;46090;48.436;11.410;2022-12-18T05:17:49;4.80;;;2.30;;
60225;SDS011;46090;48.436;11.410;2022-12-18T05:20:15;5.10;;;2.20;;
60225;SDS011;46090;48.436;11.410;2022-12-18T05:22:42;6.60;;;2.30;;
60225;SDS011;46090;48.436;11.410;2022-12-18T05:25:09;7.55;;;2.30;;
60225;SDS011;46090;48.436;11.410;2022-12-18T05:27:36;6.70;;;2.30;;
60225;SDS011;46090;48.436;11.410;2022-12-18T05:30:02;6.25;;;2.55;;
60225;SDS011;46090;48.436;11.410;2022-12-18T05:32:29;5.43;;;2.20;;
60225;SDS011;46090;48.436;11.410;2022-12-18T05:34:56;4.22;;;1.83;;
60225;SDS011;46090;48.436;11.410;2022-12-18T05:37:23;9.02;;;2.42;;
60225;SDS011;46090;48.436;11.410;2022-12-18T05:39:50;5.05;;;2.25;;
60225;SDS011;46090;48.436;11.410;2022-12-18T05:42:17;7.30;;;2.55;;
60225;SDS011;46090;48.436;11.410;2022-12-18T05:44:44;5.30;;;2.20;;
60225;SDS011;46090;48.436;11.410;2022-12-18T05:47:11;8.85;;;2.40;;
60225;SDS011;46090;48.436;11.410;2022-12-18T05:49:37;7.07;;;2.45;;
60225;SDS011;46090;48.436;11.410;2022-12-18T05:52:04;5.78;;;2.10;;
60225;SDS011;46090;48.436;11.410;2022-12-18T05:54:31;4.65;;;2.22;;
60225;SDS011;46090;48.436;11.410;2022-12-18T05:56:58;7.72;;;2.53;;
60225;SDS011;46090;48.436;11.410;2022-12-18T05:59:27;5.20;;;2.20;;
60225;SDS011;46090;48.436;11.410;2022-12-18T06:03:41;6.68;;;2.10;;
60225;SDS011;46090;48.436;11.410;2022-12-18T06:08:41;7.63;;;2.22;;
60225;SDS011;46090;48.436;11.410;2022-12-18T06:11:12;6.88;;;2.33;;
60225;SDS011;46090;48.436;11.410;2022-12-18T06:13:40;4.95;;;2.05;;
60225;SDS011;46090;48.436;11.410;2022-12-18T06:16:07;6.38;;;2.42;;
60225;SDS011;46090;48.436;11.410;2022-12-18T06:18:34;4.80;;;1.92;;
60225;SDS011;46090;48.436;11.410;2022-12-18T06:21:03;5.93;;;2.05;;
60225;SDS011;46090;48.436;11.410;2022-12-18T06:23:33;6.22;;;2.13;;
60225;SDS011;46090;48.436;11.410;2022-12-18T06:26:04;6.88;;;2.13;;
60225;SDS011;46090;48.436;11.410;2022-12-18T06:28:32;4.10;;;1.98;;
60225;SDS011;46090;48.436;11.410;2022-12-18T06:30:59;5.28;;;2.13;;
60225;SDS011;46090;48.436;11.410;2022-12-18T06:33:26;6.03;;;1.98;;
60225;SDS011;46090;48.436;11.410;2022-12-18T06:35:54;9.68;;;2.40;;
60225;SDS011;46090;48.436;11.410;2022-12-18T06:38:33;5.72;;;1.85;;
60225;SDS011;46090;48.436;11.410;2022-12-18T06:41:08;5.88;;;1.85;;
60225;SDS011;46090;48.436;11.410;2022-12-18T06:43:36;7.13;;;2.67;;
60225;SDS011;46090;48.436;11.410;2022-12-18T06:46:04;9.40;;;3.28;;
60225;SDS011;46090;48.436;11.410;2022-12-18T06:48:31;13.23;;;4.00;;
60225;SDS011;46090;48.436;11.410;2022-12-18T06:50:58;12.00;;;5.43;;
60225;SDS011;46090;48.436;11.410;2022-12-18T06:53:25;16.15;;;6.03;;
60225;SDS011;46090;48.436;11.410;2022-12-18T06:55:52;13.48;;;5.78;;
60225;SDS011;46090;48.436;11.410;2022-12-18T06:58:19;17.02;;;6.07;;
60225;SDS011;46090;48.436;11.410;2022-12-18T07:00:46;18.45;;;6.60;;
60225;SDS011;46090;48.436;11.410;2022-12-18T07:03:13;23.30;;;7.20;;
60225;SDS011;46090;48.436;11.410;2022-12-18T07:05:40;16.83;;;7.22;;
60225;SDS011;46090;48.436;11.410;2022-12-18T07:08:07;19.50;;;7.60;;
60225;SDS011;46090;48.436;11.410;2022-12-18T07:10:34;21.63;;;8.30;;
60225;SDS011;46090;48.436;11.410;2022-12-18T07:13:12;19.17;;;8.85;;
60225;SDS011;46090;48.436;11.410;2022-12-18T07:15:40;21.85;;;9.52;;
60225;SDS011;46090;48.436;11.410;2022-12-18T07:18:06;25.85;;;10.45;;
60225;SDS011;46090;48.436;11.410;2022-12-18T07:20:33;23.17;;;9.55;;
60225;SDS011;46090;48.436;11.410;2022-12-18T07:23:02;24.40;;;9.88;;
60225;SDS011;46090;48.436;11.410;2022-12-18T07:25:30;22.75;;;9.70;;
60225;SDS011;46090;48.436;11.410;2022-12-18T07:27:57;22.77;;;8.55;;
60225;SDS011;46090;48.436;11.410;2022-12-18T07:30:24;24.23;;;8.57;;
60225;SDS011;46090;48.436;11.410;2022-12-18T07:32:50;19.85;;;9.60;;
60225;SDS011;46090;48.436;11.410;2022-12-18T07:35:17;19.27;;;9.10;;
60225;SDS011;46090;48.436;11.410;2022-12-18T07:37:50;23.40;;;8.95;;
60225;SDS011;46090;48.436;11.410;2022-12-18T07:40:16;18.00;;;8.35;;
60225;SDS011;46090;48.436;11.410;2022-12-18T07:42:43;19.75;;;8.60;;
60225;SDS011;46090;48.436;11.410;2022-12-18T07:45:10;14.85;;;7.60;;
60225;SDS011;46090;48.436;11.410;2022-12-18T07:47:46;17.90;;;8.52;;
60225;SDS011;46090;48.436;11.410;2022-12-18T07:50:13;17.60;;;7.90;;
60225;SDS011;46090;48.436;11.410;2022-12-18T07:52:40;19.15;;;7.93;;
60225;SDS011;46090;48.436;11.410;2022-12-18T07:55:11;18.88;;;7.30;;
60225;SDS011;46090;48.436;11.410;2022-12-18T07:57:38;16.77;;;7.60;;
60225;SDS011;46090;48.436;11.410;2022-12-18T08:00:17;22.23;;;7.03;;
60225;SDS011;46090;48.436;11.410;2022-12-18T08:02:44;19.83;;;7.20;;
60225;SDS011;46090;48.436;11.410;2022-12-18T08:05:10;13.45;;;6.35;;
60225;SDS011;46090;48.436;11.410;2022-12-18T08:07:37;15.25;;;6.65;;
60225;SDS011;46090;48.436;11.410;2022-12-18T08:10:04;17.63;;;6.07;;
60225;SDS011;46090;48.436;11.410;2022-12-18T08:12:31;14.70;;;6.05;;
60225;SDS011;46090;48.436;11.410;2022-12-18T08:19:11;13.98;;;6.40;;
60225;SDS011;46090;48.436;11.410;2022-12-18T08:21:38;14.98;;;6.07;;
60225;SDS011;46090;48.436;11.410;2022-12-18T08:24:05;14.55;;;5.25;;
60225;SDS011;46090;48.436;11.410;2022-12-18T08:26:32;15.48;;;5.25;;
60225;SDS011;46090;48.436;11.410;2022-12-18T08:28:59;12.88;;;5.03;;
60225;SDS011;46090;48.436;11.410;2022-12-18T08:31:26;11.57;;;4.78;;
60225;SDS011;46090;48.436;11.410;2022-12-18T08:33:55;18.27;;;4.90;;
60225;SDS011;46090;48.436;11.410;2022-12-18T08:36:22;12.15;;;5.05;;
60225;SDS011;46090;48.436;11.410;2022-12-18T08:38:50;16.02;;;5.15;;
60225;SDS011;46090;48.436;11.410;2022-12-18T08:41:17;13.07;;;5.22;;
60225;SDS011;46090;48.436;11.410;2022-12-18T08:43:44;21.05;;;5.05;;
60225;SDS011;46090;48.436;11.410;2022-12-18T08:46:32;15.93;;;4.68;;
60225;SDS011;46090;48.436;11.410;2022-12-18T08:49:07;11.10;;;4.47;;
60225;SDS011;46090;48.436;11.410;2022-12-18T08:51:36;12.52;;;4.85;;
60225;SDS011;46090;48.436;11.410;2022-12-18T08:54:04;16.05;;;4.78;;
60225;SDS011;46090;48.436;11.410;2022-12-18T08:56:31;12.32;;;4.63;;
60225;SDS011;46090;48.436;11.410;2022-12-18T08:58:59;16.75;;;4.00;;
60225;SDS011;46090;48.436;11.410;2022-12-18T09:01:26;15.43;;;4.40;;
60225;SDS011;46090;48.436;11.410;2022-12-18T09:03:53;13.05;;;4.72;;
60225;SDS011;46090;48.436;11.410;2022-12-18T09:06:21;16.80;;;4.15;;
60225;SDS011;46090;48.436;11.410;2022-12-18T09:08:48;17.33;;;4.32;;
60225;SDS011;46090;48.436;11.410;2022-12-18T09:11:19;12.95;;;4.22;;
60225;SDS011;46090;48.436;11.410;2022-12-18T09:13:46;11.10;;;3.78;;
60225;SDS011;46090;48.436;11.410;2022-12-18T09:16:13;8.77;;;3.95;;
60225;SDS011;46090;48.436;11.410;2022-12-18T09:18:41;12.70;;;4.40;;
60225;SDS011;46090;48.436;11.410;2022-12-18T09:21:14;30.20;;;4.80;;
60225;SDS011;46090;48.436;11.410;2022-12-18T09:23:42;14.90;;;4.03;;
60225;SDS011;46090;48.436;11.410;2022-12-18T09:26:10;11.10;;;3.90;;
60225;SDS011;46090;48.436;11.410;2022-12-18T09:28:37;13.45;;;3.67;;
60225;SDS011;46090;48.436;11.410;2022-12-18T09:31:05;12.18;;;3.38;;
60225;SDS011;46090;48.436;11.410;2022-12-18T09:33:34;11.70;;;3.70;;
60225;SDS011;46090;48.436;11.410;2022-12-18T09:36:03;9.60;;;3.42;;
60225;SDS011;46090;48.436;11.410;2022-12-18T09:38:30;15.55;;;3.88;;
60225;SDS011;46090;48.436;11.410;2022-12-18T09:40:59;10.45;;;3.28;;
60225;SDS011;46090;48.436;11.410;2022-12-18T09:43:37;9.15;;;2.90;;
60225;SDS011;46090;48.436;11.410;2022-12-18T09:46:08;10.68;;;3.33;;
60225;SDS011;46090;48.436;11.410;2022-12-18T09:48:40;17.63;;;4.18;;
60225;SDS011;46090;48.436;11.410;2022-12-18T09:51:16;12.93;;;3.55;;
60225;SDS011;46090;48.436;11.410;2022-12-18T09:53:46;15.23;;;3.97;;
60225;SDS011;46090;48.436;11.410;2022-12-18T09:56:23;22.83;;;4.05;;
60225;SDS011;46090;48.436;11.410;2022-12-18T09:59:00;20.88;;;4.18;;
60225;SDS011;46090;48.436;11.410;2022-12-18T10:04:23;22.13;;;4.60;;
60225;SDS011;46090;48.436;11.410;2022-12-18T10:10:06;17.83;;;4.47;;
60225;SDS011;46090;48.436;11.410;2022-12-18T10:12:40;18.83;;;4.40;;
60225;SDS011;46090;48.436;11.410;2022-12-18T10:15:31;22.67;;;3.50;;
60225;SDS011;46090;48.436;11.410;2022-12-18T10:18:10;16.05;;;3.85;;
60225;SDS011;46090;48.436;11.410;2022-12-18T10:20:52;20.00;;;4.43;;
60225;SDS011;46090;48.436;11.410;2022-12-18T10:23:26;20.58;;;4.30;;
60225;SDS011;46090;48.436;11.410;2022-12-18T10:26:26;25.73;;;4.43;;
60225;SDS011;46090;48.436;11.410;2022-12-18T10:28:53;17.75;;;4.15;;
60225;SDS011;46090;48.436;11.410;2022-12-18T10:31:21;15.52;;;4.00;;
60225;SDS011;46090;48.436;11.410;2022-12-18T10:33:53;21.65;;;3.83;;
60225;SDS011;46090;48.436;11.410;2022-12-18T10:36:23;16.20;;;4.00;;
60225;SDS011;46090;48.436;11.410;2022-12-18T10:38:50;21.30;;;4.03;;
60225;SDS011;46090;48.436;11.410;2022-12-18T10:43:47;18.23;;;4.55;;
60225;SDS011;46090;48.436;11.410;2022-12-18T10:46:15;19.38;;;4.47;;
60225;SDS011;46090;48.436;11.410;2022-12-18T10:48:50;27.05;;;4.78;;
60225;SDS011;46090;48.436;11.410;2022-12-18T10:51:20;19.77;;;3.80;;
60225;SDS011;46090;48.436;11.410;2022-12-18T10:53:51;12.98;;;4.40;;
60225;SDS011;46090;48.436;11.410;2022-12-18T10:56:42;19.02;;;3.75;;
60225;SDS011;46090;48.436;11.410;2022-12-18T10:59:11;14.30;;;3.65;;
60225;SDS011;46090;48.436;11.410;2022-12-18T11:01:47;16.52;;;4.47;;
60225;SDS011;46090;48.436;11.410;2022-12-18T11:04:21;12.20;;;3.67;;
60225;SDS011;46090;48.436;11.410;2022-12-18T11:09:27;10.43;;;3.33;;
60225;SDS011;46090;48.436;11.410;2022-12-18T11:11:59;16.20;;;3.72;;
60225;SDS011;46090;48.436;11.410;2022-12-18T11:14:29;15.85;;;3.50;;
60225;SDS011;46090;48.436;11.410;2022-12-18T11:16:59;10.07;;;3.15;;
60225;SDS011;46090;48.436;11.410;2022-12-18T11:19:51;13.63;;;3.03;;
60225;SDS011;46090;48.436;11.410;2022-12-18T11:22:27;11.95;;;3.63;;
60225;SDS011;46090;48.436;11.410;2022-12-18T11:25:02;8.82;;;3.17;;
60225;SDS011;46090;48.436;11.410;2022-12-18T11:27:53;12.07;;;3.28;;
60225;SDS011;46090;48.436;11.410;2022-12-18T11:30:22;12.55;;;2.88;;
60225;SDS011;46090;48.436;11.410;2022-12-18T11:32:54;9.52;;;2.78;;
60225;SDS011;46090;48.436;11.410;2022-12-18T11:36:05;28.67;;;3.80;;
60225;SDS011;46090;48.436;11.410;2022-12-18T11:38:26;10.50;;;2.92;;
60225;SDS011;46090;48.436;11.410;2022-12-18T11:40:58;11.07;;;3.38;;
60225;SDS011;46090;48.436;11.410;2022-12-18T11:46:36;15.70;;;3.40;;
60225;SDS011;46090;48.436;11.410;2022-12-18T11:51:38;12.45;;;3.35;;
60225;SDS011;46090;48.436;11.410;2022-12-18T11:54:12;11.80;;;3.08;;
60225;SDS011;46090;48.436;11.410;2022-12-18T11:56:43;10.45;;;2.92;;
60225;SDS011;46090;48.436;11.410;2022-12-18T12:02:09;12.38;;;3.33;;
60225;SDS011;46090;48.436;11.410;2022-12-18T12:04:56;9.20;;;2.97;;
60225;SDS011;46090;48.436;11.410;2022-12-18T12:07:31;8.45;;;3.00;;
60225;SDS011;46090;48.436;11.410;2022-12-18T12:15:50;9.55;;;2.80;;
60225;SDS011;46090;48.436;11.410;2022-12-18T12:23:59;9.55;;;2.83;;
60225;SDS011;46090;48.436;11.410;2022-12-18T12:26:53;12.90;;;2.85;;
60225;SDS011;46090;48.436;11.410;2022-12-18T12:35:04;9.60;;;3.13;;
60225;SDS011;46090;48.436;11.410;2022-12-18T12:40:20;8.48;;;2.60;;
60225;SDS011;46090;48.436;11.410;2022-12-18T12:46:05;12.18;;;2.97;;
60225;SDS011;46090;48.436;11.410;2022-12-18T12:48:47;10.90;;;2.65;;
60225;SDS011;46090;48.436;11.410;2022-12-18T12:51:17;6.95;;;2.55;;
60225;SDS011;46090;48.436;11.410;2022-12-18T12:53:47;12.95;;;2.90;;
60225;SDS011;46090;48.436;11.410;2022-12-18T12:56:18;11.43;;;3.00;;
60225;SDS011;46090;48.436;11.410;2022-12-18T12:58:48;8.52;;;2.53;;
60225;SDS011;46090;48.436;11.410;2022-12-18T13:04:17;11.80;;;3.03;;
60225;SDS011;46090;48.436;11.410;2022-12-18T13:07:00;9.63;;;3.10;;
60225;SDS011;46090;48.436;11.410;2022-12-18T13:09:32;11.57;;;3.20;;
60225;SDS011;46090;48.436;11.410;2022-12-18T13:12:03;7.03;;;2.65;;
60225;SDS011;46090;48.436;11.410;2022-12-18T13:14:49;14.27;;;3.20;;
60225;SDS011;46090;48.436;11.410;2022-12-18T13:17:24;10.20;;;2.75;;
60225;SDS011;46090;48.436;11.410;2022-12-18T13:20:09;12.10;;;2.70;;
60225;SDS011;46090;48.436;11.410;2022-12-18T13:22:39;10.18;;;2.63;;
60225;SDS011;46090;48.436;11.410;2022-12-18T13:25:27;11.73;;;2.80;;
60225;SDS011;46090;48.436;11.410;2022-12-18T13:28:06;11.38;;;2.40;;
60225;SDS011;46090;48.436;11.410;2022-12-18T13:38:23;8.68;;;3.35;;
60225;SDS011;46090;48.436;11.410;2022-12-18T13:41:01;9.10;;;2.88;;
60225;SDS011;46090;48.436;11.410;2022-12-18T13:43:31;13.05;;;2.55;;
60225;SDS011;46090;48.436;11.410;2022-12-18T13:46:23;7.07;;;2.75;;
60225;SDS011;46090;48.436;11.410;2022-12-18T13:51:41;9.13;;;2.45;;
60225;SDS011;46090;48.436;11.410;2022-12-18T13:54:18;10.05;;;2.30;;
60225;SDS011;46090;48.436;11.410;2022-12-18T13:56:48;8.57;;;2.63;;
60225;SDS011;46090;48.436;11.410;2022-12-18T13:59:16;9.73;;;2.28;;
60225;SDS011;46090;48.436;11.410;2022-12-18T14:01:54;14.13;;;2.63;;
60225;SDS011;46090;48.436;11.410;2022-12-18T14:04:29;6.72;;;2.22;;
60225;SDS011;46090;48.436;11.410;2022-12-18T14:07:02;13.90;;;3.10;;
60225;SDS011;46090;48.436;11.410;2022-12-18T14:09:30;6.32;;;2.25;;
60225;SDS011;46090;48.436;11.410;2022-12-18T14:12:02;17.45;;;3.40;;
60225;SDS011;46090;48.436;11.410;2022-12-18T14:14:49;11.63;;;3.28;;
60225;SDS011;46090;48.436;11.410;2022-12-18T14:17:21;9.43;;;2.60;;
60225;SDS011;46090;48.436;11.410;2022-12-18T14:19:50;8.73;;;2.65;;
60225;SDS011;46090;48.436;11.410;2022-12-18T14:22:21;12.27;;;2.53;;
60225;SDS011;46090;48.436;11.410;2022-12-18T14:27:44;9.88;;;3.08;;
60225;SDS011;46090;48.436;11.410;2022-12-18T14:30:26;11.30;;;2.50;;
60225;SDS011;46090;48.436;11.410;2022-12-18T14:33:01;7.03;;;2.35;;
60225;SDS011;46090;48.436;11.410;2022-12-18T14:35:29;10.82;;;2.58;;
60225;SDS011;46090;48.436;11.410;2022-12-18T14:43:12;7.47;;;2.60;;
60225;SDS011;46090;48.436;11.410;2022-12-18T14:45:41;7.80;;;1.90;;
60225;SDS011;46090;48.436;11.410;2022-12-18T14:50:56;6.32;;;2.40;;
60225;SDS011;46090;48.436;11.410;2022-12-18T14:53:31;6.68;;;2.60;;
60225;SDS011;46090;48.436;11.410;2022-12-18T14:56:00;7.63;;;3.10;;
60225;SDS011;46090;48.436;11.410;2022-12-18T14:58:28;6.85;;;2.22;;
60225;SDS011;46090;48.436;11.410;2022-12-18T15:00:55;9.25;;;2.50;;
60225;SDS011;46090;48.436;11.410;2022-12-18T15:03:22;7.35;;;2.35;;
60225;SDS011;46090;48.436;11.410;2022-12-18T15:05:49;6.78;;;1.95;;
60225;SDS011;46090;48.436;11.410;2022-12-18T15:08:29;8.88;;;2.63;;
60225;SDS011;46090;48.436;11.410;2022-12-18T15:10:58;7.13;;;2.95;;
60225;SDS011;46090;48.436;11.410;2022-12-18T15:13:25;9.93;;;2.55;;
60225;SDS011;46090;48.436;11.410;2022-12-18T15:15:52;9.60;;;2.78;;
60225;SDS011;46090;48.436;11.410;2022-12-18T15:18:21;7.88;;;2.45;;
60225;SDS011;46090;48.436;11.410;2022-12-18T15:20:58;9.88;;;2.40;;
60225;SDS011;46090;48.436;11.410;2022-12-18T15:23:31;8.40;;;2.40;;
60225;SDS011;46090;48.436;11.410;2022-12-18T15:26:04;7.03;;;2.25;;
60225;SDS011;46090;48.436;11.410;2022-12-18T15:31:30;8.30;;;2.20;;
60225;SDS011;46090;48.436;11.410;2022-12-18T15:36:50;8.90;;;2.42;;
60225;SDS011;46090;48.436;11.410;2022-12-18T15:39:18;6.82;;;2.30;;
60225;SDS011;46090;48.436;11.410;2022-12-18T15:41:44;7.93;;;2.25;;
60225;SDS011;46090;48.436;11.410;2022-12-18T15:44:31;10.02;;;2.63;;
60225;SDS011;46090;48.436;11.410;2022-12-18T15:46:58;8.63;;;2.80;;
60225;SDS011;46090;48.436;11.410;2022-12-18T15:49:25;4.85;;;2.20;;
60225;SDS011;46090;48.436;11.410;2022-12-18T15:51:52;7.00;;;2.35;;
60225;SDS011;46090;48.436;11.410;2022-12-18T15:54:20;6.68;;;2.47;;
60225;SDS011;46090;48.436;11.410;2022-12-18T15:57:20;7.53;;;2.40;;
60225;SDS011;46090;48.436;11.410;2022-12-18T15:59:50;6.18;;;2.20;;
60225;SDS011;46090;48.436;11.410;2022-12-18T16:02:19;11.40;;;2.45;;
60225;SDS011;46090;48.436;11.410;2022-12-18T16:04:48;8.88;;;2.63;;
60225;SDS011;46090;48.436;11.410;2022-12-18T16:07:16;11.15;;;2.55;;
60225;SDS011;46090;48.436;11.410;2022-12-18T16:09:48;18.65;;;2.85;;
60225;SDS011;46090;48.436;11.410;2022-12-18T16:12:16;15.88;;;3.00;;
60225;SDS011;46090;48.436;11.410;2022-12-18T16:14:44;14.07;;;2.72;;
60225;SDS011;46090;48.436;11.410;2022-12-18T16:17:11;7.93;;;2.20;;
60225;SDS011;46090;48.436;11.410;2022-12-18T16:19:39;7.03;;;2.20;;
60225;SDS011;46090;48.436;11.410;2022-12-18T16:22:08;10.30;;;2.65;;
60225;SDS011;46090;48.436;11.410;2022-12-18T16:24:44;7.90;;;1.98;;
60225;SDS011;46090;48.436;11.410;2022-12-18T16:27:11;18.10;;;2.25;;
60225;SDS011;46090;48.436;11.410;2022-12-18T16:29:38;10.35;;;2.72;;
60225;SDS011;46090;48.436;11.410;2022-12-18T16:32:05;10.13;;;1.80;;
60225;SDS011;46090;48.436;11.410;2022-12-18T16:34:32;9.10;;;2.22;;
60225;SDS011;46090;48.436;11.410;2022-12-18T16:37:03;8.90;;;2.08;;
60225;SDS011;46090;48.436;11.410;2022-12-18T16:39:35;8.15;;;2.20;;
60225;SDS011;46090;48.436;11.410;2022-12-18T16:42:06;12.15;;;2.30;;
60225;SDS011;46090;48.436;11.410;2022-12-18T16:44:38;8.35;;;2.13;;